Time;durP1;ratioP1;P1;durP2;ratioP2;P2;SDS_P1;SDS_P2;PMS_P1;PMS_P2;Temp;Humidity;BMP_temperature;BMP_pressure;BME280_temperature;BME280_humidity;BME280_pressure;Samples;Min_cycle;Max_cycle;Signal;HPM_P1;HPM_P2
2022/01/26 00:07:33;;;;;;;7.40;6.70;;;15.60;55.20;16.60;102416.00;;;;5026491;28;20261;-47
2022/01/26 00:09:59;;;;;;;7.67;6.97;;;15.60;55.30;16.60;102426.00;;;;5026077;28;20661;-48
2022/01/26 00:12:25;;;;;;;7.83;7.03;;;15.60;55.20;16.60;102413.00;;;;5034795;28;20182;-49
2022/01/26 00:14:50;;;;;;;6.97;6.27;;;15.50;55.30;16.60;102411.00;;;;5026211;28;20179;-47
2022/01/26 00:17:16;;;;;;;7.27;6.57;;;15.50;55.30;16.60;102411.00;;;;5026772;28;20191;-47
2022/01/26 00:19:54;;;;;;;7.30;6.63;;;15.50;55.30;16.50;102409.00;;;;5026252;28;20614;-48
2022/01/26 00:22:40;;;;;;;8.03;7.23;;;15.40;55.40;16.50;102398.00;;;;5031200;28;20201;-48
2022/01/26 00:25:22;;;;;;;7.67;7.03;;;15.40;55.40;16.50;102402.00;;;;5041362;28;20221;-47
2022/01/26 00:33:06;;;;;;;7.10;6.40;;;15.40;55.70;16.50;102410.00;;;;5029746;28;20187;-48
2022/01/26 00:38:41;;;;;;;7.23;6.63;;;15.30;55.40;16.40;102413.00;;;;5029523;28;20206;-46
2022/01/26 00:41:13;;;;;;;7.70;7.00;;;15.30;55.30;16.40;102414.00;;;;5028961;28;20203;-47
2022/01/26 00:43:45;;;;;;;7.50;6.90;;;15.30;55.70;16.40;102413.00;;;;5029706;28;20800;-48
2022/01/26 00:46:11;;;;;;;7.10;6.50;;;15.30;55.30;16.40;102422.00;;;;5029802;28;20162;-48
2022/01/26 00:48:38;;;;;;;7.57;6.87;;;15.20;55.20;16.30;102414.00;;;;5029236;28;20187;-48
2022/01/26 00:51:07;;;;;;;7.90;7.17;;;15.30;55.50;16.30;102416.00;;;;5029071;28;20182;-47
2022/01/26 00:53:37;;;;;;;7.07;6.43;;;15.20;55.40;16.30;102413.00;;;;5030512;28;20174;-48
2022/01/26 00:56:04;;;;;;;7.63;6.93;;;15.20;55.50;16.30;102409.00;;;;5029754;28;20163;-47
2022/01/26 00:58:30;;;;;;;7.57;6.87;;;15.10;55.80;16.30;102414.00;;;;5029101;28;20202;-48
2022/01/26 01:00:58;;;;;;;7.43;6.73;;;15.20;55.40;16.30;102414.00;;;;5028928;28;20207;-48
2022/01/26 01:03:24;;;;;;;7.57;6.97;;;15.10;55.40;16.20;102403.00;;;;5029147;28;20163;-47
2022/01/26 01:05:59;;;;;;;7.90;7.20;;;15.10;55.50;16.20;102403.00;;;;5028756;28;20962;-47
2022/01/26 01:08:25;;;;;;;7.03;6.37;;;15.10;55.30;16.20;102257.00;;;;5031014;28;20673;-52
2022/01/26 01:10:53;;;;;;;7.10;6.50;;;15.20;55.40;16.20;102411.00;;;;5028730;28;20254;-46
2022/01/26 01:13:22;;;;;;;8.00;7.30;;;15.10;55.40;16.20;102411.00;;;;5029022;28;20175;-47
2022/01/26 01:15:49;;;;;;;7.23;6.53;;;15.10;55.30;16.20;102403.00;;;;5029172;28;20179;-47
2022/01/26 01:18:22;;;;;;;7.20;6.60;;;15.00;55.40;16.20;102397.00;;;;5028956;28;20564;-48
2022/01/26 01:21:18;;;;;;;7.60;6.90;;;15.00;55.30;16.20;102399.00;;;;5027578;28;20180;-47
2022/01/26 01:26:42;;;;;;;7.53;6.90;;;15.00;55.30;16.10;102407.00;;;;5028507;28;20209;-48
2022/01/26 01:29:19;;;;;;;7.33;6.73;;;15.00;55.30;16.10;102407.00;;;;5027427;28;20190;-47
2022/01/26 01:31:50;;;;;;;7.77;7.07;;;15.00;55.30;16.10;102410.00;;;;5028221;28;20156;-47
2022/01/26 01:34:29;;;;;;;8.03;7.33;;;15.00;55.40;16.10;102407.00;;;;5028854;28;20713;-46
2022/01/26 01:37:05;;;;;;;8.37;7.60;;;15.00;55.30;16.10;102410.00;;;;5027837;28;20179;-47
2022/01/26 01:39:32;;;;;;;7.50;6.80;;;15.00;55.30;16.10;102417.00;;;;5028267;28;20201;-47
2022/01/26 01:41:58;;;;;;;7.53;6.83;;;14.90;55.30;16.10;102416.00;;;;5030731;28;20175;-46
2022/01/26 01:44:24;;;;;;;8.17;7.47;;;14.90;55.30;16.00;102410.00;;;;5033192;28;20522;-46
2022/01/26 01:46:50;;;;;;;7.27;6.63;;;14.90;55.60;16.00;102410.00;;;;5031958;28;20171;-47
2022/01/26 01:49:16;;;;;;;7.43;6.73;;;14.80;55.30;16.00;102423.00;;;;5029823;28;20249;-47
2022/01/26 01:51:48;;;;;;;7.83;7.13;;;14.90;55.50;16.00;102424.00;;;;5045018;28;20174;-48
2022/01/26 01:54:16;;;;;;;7.90;7.20;;;14.90;55.60;16.00;102429.00;;;;5051421;28;20666;-47
2022/01/26 01:56:43;;;;;;;7.77;6.97;;;14.80;55.30;16.00;102404.00;;;;5051424;28;20247;-45
2022/01/26 01:59:09;;;;;;;7.67;6.97;;;14.80;55.30;16.00;102418.00;;;;5048280;28;20210;-46
2022/01/26 02:01:35;;;;;;;8.03;7.33;;;14.80;55.30;16.00;102412.00;;;;5047790;28;20857;-47
2022/01/26 02:04:00;;;;;;;7.70;7.10;;;14.80;55.30;16.00;102406.00;;;;5048200;28;20179;-48
2022/01/26 02:06:26;;;;;;;7.60;6.90;;;14.80;55.30;16.00;102400.00;;;;5047701;28;20163;-47
2022/01/26 02:08:52;;;;;;;8.30;7.50;;;14.80;55.30;16.00;102405.00;;;;5047752;28;20691;-47
2022/01/26 02:11:18;;;;;;;7.60;7.00;;;14.80;55.30;16.00;102403.00;;;;5050048;28;20171;-48
2022/01/26 02:13:57;;;;;;;8.03;7.30;;;14.80;55.20;16.00;102402.00;;;;5050677;28;20652;-47
2022/01/26 02:54:19;;;;;;;7.97;7.23;;;14.70;55.20;15.70;102392.00;;;;5046011;28;20167;-46
2022/01/26 03:02:00;;;;;;;8.30;7.60;;;14.60;55.10;15.70;102351.00;;;;5046794;28;20249;-47
2022/01/26 03:07:02;;;;;;;9.00;8.20;;;14.50;55.00;15.70;102352.00;;;;5046860;28;20205;-47
2022/01/26 03:09:39;;;;;;;8.93;8.13;;;14.60;55.20;15.70;102343.00;;;;5045760;28;20666;-47
2022/01/26 03:12:07;;;;;;;8.60;7.90;;;14.60;55.20;15.70;102352.00;;;;5045447;28;20161;-47
2022/01/26 03:14:45;;;;;;;9.00;8.20;;;14.60;55.10;15.60;102342.00;;;;5047234;28;20178;-47
2022/01/26 03:20:03;;;;;;;8.37;7.67;;;14.50;55.10;15.60;102357.00;;;;5014944;28;20217;-45
2022/01/26 03:33:50;;;;;;;9.90;9.00;;;14.50;55.10;15.60;102347.00;;;;5046583;28;20178;-47
2022/01/26 03:36:12;;;;;;;8.97;8.17;;;14.50;55.00;15.50;102339.00;;;;5045540;28;20182;-46
2022/01/26 03:38:45;;;;;;;9.37;8.57;;;14.50;55.20;15.50;102348.00;;;;5047896;28;20201;-47
2022/01/26 03:43:45;;;;;;;9.87;8.97;;;14.40;55.10;15.50;102335.00;;;;5051423;28;20629;-46
2022/01/26 03:46:11;;;;;;;9.20;8.40;;;14.40;55.30;15.50;102321.00;;;;5045930;28;20196;-48
2022/01/26 03:48:36;;;;;;;9.13;8.33;;;14.40;55.20;15.50;102322.00;;;;5046324;28;20198;-48
2022/01/26 03:51:02;;;;;;;9.57;8.67;;;14.40;55.00;15.50;102317.00;;;;5044586;28;20797;-47
2022/01/26 03:53:28;;;;;;;9.70;8.80;;;14.40;55.10;15.50;102311.00;;;;5046500;28;20182;-48
2022/01/26 03:55:54;;;;;;;9.70;8.80;;;14.40;55.10;15.50;102308.00;;;;5045118;28;20183;-47
2022/01/26 03:58:19;;;;;;;10.00;9.10;;;14.40;55.00;15.50;102311.00;;;;5046064;28;20241;-47
2022/01/26 04:00:45;;;;;;;9.77;8.87;;;14.30;55.10;15.40;102303.00;;;;5049314;28;20190;-47
2022/01/26 04:03:11;;;;;;;9.40;8.60;;;14.30;55.10;15.40;102309.00;;;;5050095;28;20541;-48
2022/01/26 04:05:36;;;;;;;10.63;9.57;;;14.30;55.30;15.40;102304.00;;;;5050175;28;20170;-48
2022/01/26 04:08:09;;;;;;;10.67;9.67;;;14.30;55.10;15.40;102302.00;;;;5050033;28;20249;-46
2022/01/26 04:11:03;;;;;;;10.57;9.60;;;14.30;55.00;15.40;102304.00;;;;5050322;28;20166;-48
2022/01/26 04:13:29;;;;;;;11.30;10.20;;;14.30;55.70;15.40;102312.00;;;;5050371;28;20204;-47
2022/01/26 04:15:55;;;;;;;10.53;9.53;;;14.30;55.00;15.40;102320.00;;;;5050048;28;20174;-47
2022/01/26 04:18:27;;;;;;;10.43;9.43;;;14.30;55.00;15.40;102308.00;;;;5050107;28;20719;-47
2022/01/26 04:20:56;;;;;;;10.47;9.57;;;14.30;55.00;15.40;102320.00;;;;5049895;28;20244;-50
2022/01/26 04:23:37;;;;;;;10.90;9.47;;;14.20;55.20;15.30;102326.00;;;;5049933;28;20528;-46
2022/01/26 04:26:04;;;;;;;11.43;9.67;;;14.20;55.90;15.30;102334.00;;;;5049225;28;20722;-47
2022/01/26 04:28:38;;;;;;;11.60;10.47;;;14.10;55.60;15.30;102327.00;;;;5049693;28;20198;-47
2022/01/26 04:31:04;;;;;;;12.27;10.97;;;14.10;55.40;15.20;102309.00;;;;5049837;28;20166;-47
2022/01/26 04:33:32;;;;;;;13.40;12.10;;;14.10;55.60;15.20;102316.00;;;;5049612;28;20545;-47
2022/01/26 04:35:58;;;;;;;14.77;13.23;;;14.10;55.40;15.20;102317.00;;;;5049361;28;20174;-47
2022/01/26 04:38:34;;;;;;;16.20;14.13;;;14.10;55.40;15.20;102317.00;;;;5048109;28;20887;-47
2022/01/26 04:41:18;;;;;;;16.57;14.80;;;14.10;55.20;15.20;102322.00;;;;5049492;28;20609;-46
2022/01/26 04:43:47;;;;;;;16.40;14.77;;;14.20;55.20;15.20;102330.00;;;;5049389;28;20150;-47
2022/01/26 04:46:13;;;;;;;18.60;16.70;;;14.10;55.10;15.20;102336.00;;;;5045150;28;20269;-47
2022/01/26 04:48:39;;;;;;;18.60;16.27;;;14.20;55.10;15.20;102329.00;;;;5028159;28;20195;-49
2022/01/26 04:51:04;;;;;;;19.80;17.70;;;14.10;55.10;15.20;102331.00;;;;5029190;28;20784;-48
2022/01/26 04:53:30;;;;;;;18.50;16.60;;;14.10;55.00;15.20;102323.00;;;;5029206;28;20845;-46
2022/01/26 04:55:56;;;;;;;18.77;16.40;;;14.10;55.20;15.20;102340.00;;;;5029017;28;20176;-47
2022/01/26 04:58:21;;;;;;;17.93;16.13;;;14.10;55.30;15.20;102344.00;;;;5028813;28;20206;-48
2022/01/26 05:00:47;;;;;;;17.63;15.73;;;14.10;55.50;15.20;102332.00;;;;5029024;28;20199;-48
2022/01/26 05:03:13;;;;;;;17.37;15.63;;;14.10;55.60;15.20;102328.00;;;;5028020;28;20174;-47
2022/01/26 05:05:39;;;;;;;19.33;16.33;;;14.00;55.60;15.20;102335.00;;;;5029047;28;20163;-47
2022/01/26 05:08:04;;;;;;;19.03;17.07;;;14.00;55.50;15.20;102331.00;;;;5028719;28;20197;-48
2022/01/26 05:10:30;;;;;;;22.83;18.87;;;13.90;55.10;15.10;102358.00;;;;5027863;28;20298;-47
2022/01/26 05:12:56;;;;;;;20.70;18.60;;;13.70;55.20;15.10;102352.00;;;;5028382;28;20179;-47
2022/01/26 05:15:23;;;;;;;21.33;18.67;;;13.60;56.10;15.00;102359.00;;;;5028875;28;20187;-47
2022/01/26 05:17:49;;;;;;;20.77;17.93;;;13.60;55.80;15.00;102362.00;;;;5028915;28;20272;-47
2022/01/26 05:20:15;;;;;;;22.33;19.40;;;13.40;55.70;15.00;102362.00;;;;5028061;28;20203;-48
2022/01/26 05:22:43;;;;;;;25.43;20.73;;;13.50;56.30;14.90;102359.00;;;;5027500;28;20167;-48
2022/01/26 05:25:09;;;;;;;22.70;20.03;;;13.40;55.80;14.90;102335.00;;;;5028250;28;20701;-47
2022/01/26 05:27:35;;;;;;;26.67;22.40;;;13.40;56.10;14.80;102376.00;;;;5027294;28;20195;-46
2022/01/26 05:30:01;;;;;;;29.37;25.20;;;13.20;55.40;14.80;102372.00;;;;5028021;28;20182;-47
2022/01/26 05:32:27;;;;;;;31.90;22.60;;;13.00;53.90;14.70;102375.00;;;;5028425;28;20171;-47
2022/01/26 05:34:53;;;;;;;28.63;24.80;;;12.70;55.70;14.60;102367.00;;;;5029017;28;20214;-46
2022/01/26 05:37:18;;;;;;;29.43;26.13;;;12.60;54.90;14.50;102376.00;;;;5029772;28;20572;-47
2022/01/26 05:39:44;;;;;;;28.17;24.70;;;12.60;54.60;14.50;102382.00;;;;5029079;28;20194;-47
2022/01/26 05:42:10;;;;;;;29.87;25.33;;;12.70;56.20;14.40;102373.00;;;;5029351;28;20174;-47
2022/01/26 05:44:36;;;;;;;32.27;27.33;;;12.80;55.00;14.40;102366.00;;;;5029201;28;20174;-49
2022/01/26 05:47:03;;;;;;;31.13;27.63;;;12.70;54.60;14.30;102363.00;;;;5028470;28;20305;-48
2022/01/26 05:49:29;;;;;;;29.87;26.03;;;12.60;54.90;14.30;102371.00;;;;5028210;28;20217;-48
2022/01/26 05:51:55;;;;;;;29.97;26.73;;;12.60;55.80;14.30;102374.00;;;;5049843;28;20178;-48
2022/01/26 05:54:20;;;;;;;31.07;27.13;;;12.90;56.20;14.30;102381.00;;;;5049836;28;20232;-48
2022/01/26 05:56:47;;;;;;;33.40;27.67;;;12.80;55.80;14.30;102359.00;;;;5049567;28;20174;-49
2022/01/26 05:59:17;;;;;;;33.70;28.60;;;12.90;55.80;14.30;102353.00;;;;5049358;28;20201;-47
2022/01/26 06:01:43;;;;;;;31.27;27.47;;;12.90;53.90;14.30;102358.00;;;;5049638;28;20169;-47
2022/01/26 06:04:08;;;;;;;30.77;27.47;;;12.80;55.40;14.30;102348.00;;;;5049419;28;20171;-47
2022/01/26 06:06:34;;;;;;;33.13;29.00;;;12.80;55.70;14.30;102355.00;;;;5031433;28;20204;-47
2022/01/26 06:09:00;;;;;;;29.97;26.77;;;12.90;55.70;14.30;102349.00;;;;5049276;28;20190;-47
2022/01/26 06:11:25;;;;;;;31.10;27.40;;;13.00;55.50;14.30;102352.00;;;;5049347;28;20177;-47
2022/01/26 06:13:51;;;;;;;31.27;27.87;;;13.00;54.90;14.30;102349.00;;;;5050245;28;20856;-46
2022/01/26 06:16:17;;;;;;;31.17;27.33;;;13.00;55.20;14.30;102353.00;;;;5049526;28;20171;-46
2022/01/26 06:18:44;;;;;;;31.70;28.27;;;12.80;55.40;14.30;102360.00;;;;5049073;28;20625;-49
2022/01/26 06:21:10;;;;;;;35.73;31.23;;;12.80;54.30;14.20;102354.00;;;;5050017;28;20255;-47
2022/01/26 06:23:35;;;;;;;34.93;30.90;;;12.50;53.70;14.20;102337.00;;;;5051013;28;20172;-47
2022/01/26 06:26:01;;;;;;;35.43;30.93;;;12.40;53.70;14.10;102344.00;;;;5049093;28;20167;-50
2022/01/26 06:28:27;;;;;;;34.07;30.37;;;12.20;54.60;14.00;102328.00;;;;5048893;28;20190;-48
2022/01/26 06:31:03;;;;;;;36.33;32.13;;;12.00;54.00;13.90;102320.00;;;;5047508;28;20192;-49
2022/01/26 06:33:32;;;;;;;40.87;34.50;;;11.90;55.00;13.70;102323.00;;;;5048292;28;20158;-46
2022/01/26 06:35:59;;;;;;;36.17;31.70;;;11.40;53.90;13.60;102336.00;;;;5048027;28;20155;-47
2022/01/26 06:38:25;;;;;;;38.80;31.97;;;11.60;56.60;13.50;102344.00;;;;5048613;28;20186;-47
2022/01/26 06:40:52;;;;;;;34.17;30.47;;;11.60;55.20;13.50;102346.00;;;;5048760;28;20229;-48
2022/01/26 06:43:19;;;;;;;34.80;30.37;;;11.90;56.00;13.60;102357.00;;;;5049904;28;20171;-47
2022/01/26 06:45:50;;;;;;;36.90;31.57;;;12.00;55.50;13.60;102353.00;;;;5048983;28;20232;-47
2022/01/26 06:50:41;;;;;;;34.50;30.73;;;12.20;54.20;13.60;102359.00;;;;5049259;28;20174;-46
2022/01/26 06:53:07;;;;;;;38.13;32.23;;;12.00;54.40;13.60;102373.00;;;;5049188;28;20174;-47
2022/01/26 06:55:33;;;;;;;37.63;32.20;;;12.00;54.50;13.60;102350.00;;;;5049371;28;20174;-47
2022/01/26 06:57:59;;;;;;;39.83;34.07;;;12.00;55.00;13.50;102355.00;;;;5049971;28;20194;-46
2022/01/26 07:00:25;;;;;;;36.70;30.97;;;11.50;53.50;13.40;102356.00;;;;5050042;28;20201;-46
2022/01/26 07:02:54;;;;;;;44.93;35.80;;;11.40;54.80;13.30;102359.00;;;;5050531;28;20181;-46
2022/01/26 07:05:20;;;;;;;41.63;34.47;;;11.50;54.70;13.30;102370.00;;;;5048789;28;20163;-48
2022/01/26 07:07:45;;;;;;;41.27;34.73;;;11.50;54.80;13.30;102365.00;;;;5049325;28;20186;-47
2022/01/26 07:10:11;;;;;;;38.87;32.37;;;11.60;54.60;13.30;102348.00;;;;5048981;28;20178;-45
2022/01/26 07:12:37;;;;;;;44.07;35.80;;;11.70;55.80;13.30;102363.00;;;;5049063;28;20167;-47
2022/01/26 07:23:06;;;;;;;40.17;32.50;;;11.80;56.20;13.20;102334.00;;;;5047376;28;20151;-48
2022/01/26 07:25:32;;;;;;;39.60;32.23;;;12.10;55.50;13.30;102339.00;;;;5046733;28;20361;-47
2022/01/26 07:28:01;;;;;;;40.63;32.77;;;12.40;55.10;13.30;102350.00;;;;5047538;28;20186;-48
2022/01/26 07:30:26;;;;;;;38.30;30.50;;;12.70;55.00;13.50;102352.00;;;;5046593;28;20178;-49
2022/01/26 07:32:52;;;;;;;34.30;28.13;;;13.00;54.60;13.60;102358.00;;;;5046408;28;20170;-48
2022/01/26 07:35:18;;;;;;;31.40;27.20;;;13.30;54.10;13.80;102364.00;;;;5049035;28;20231;-47
2022/01/26 07:37:45;;;;;;;33.33;27.40;;;13.60;53.60;13.90;102357.00;;;;5049400;28;20194;-49
2022/01/26 07:40:13;;;;;;;30.53;26.17;;;13.80;53.70;14.00;102352.00;;;;5050248;28;20198;-47
2022/01/26 07:42:38;;;;;;;28.63;24.87;;;13.90;53.70;14.20;102354.00;;;;5049028;28;20246;-49
2022/01/26 07:45:06;;;;;;;27.80;24.80;;;14.00;53.70;14.30;102365.00;;;;5050138;28;20571;-49
2022/01/26 07:47:33;;;;;;;30.00;25.40;;;14.10;54.00;14.40;102378.00;;;;5065663;28;20280;-46
2022/01/26 07:49:59;;;;;;;29.57;23.30;;;14.10;54.20;14.50;102366.00;;;;5050153;28;20236;-48
2022/01/26 07:52:27;;;;;;;28.97;23.97;;;14.20;54.40;14.50;102351.00;;;;5050119;28;20249;-47
2022/01/26 07:54:53;;;;;;;36.00;23.83;;;14.30;54.20;14.60;102356.00;;;;5050177;28;20174;-47
2022/01/26 07:57:20;;;;;;;27.70;22.03;;;14.30;54.40;14.70;102352.00;;;;5050103;28;20721;-48
2022/01/26 07:59:45;;;;;;;31.87;22.63;;;14.30;54.20;14.50;102349.00;;;;5050202;28;20253;-47
2022/01/26 08:02:11;;;;;;;26.53;21.00;;;14.40;54.20;14.80;102367.00;;;;5051325;28;20171;-48
2022/01/26 08:04:37;;;;;;;26.23;20.43;;;14.40;54.00;14.80;102364.00;;;;5051039;28;20175;-48
2022/01/26 08:07:03;;;;;;;26.47;21.10;;;14.50;54.10;14.90;102371.00;;;;5032219;28;20236;-47
2022/01/26 08:09:29;;;;;;;25.87;20.13;;;14.50;53.90;14.90;102374.00;;;;5050012;28;20178;-47
2022/01/26 08:11:54;;;;;;;23.77;19.93;;;14.50;53.90;15.00;102387.00;;;;5031716;28;20691;-47
2022/01/26 08:14:20;;;;;;;22.47;19.37;;;14.60;53.90;15.00;102391.00;;;;5048277;28;20567;-48
2022/01/26 08:16:46;;;;;;;23.23;19.73;;;14.60;53.90;15.10;102384.00;;;;5049603;28;20166;-47
2022/01/26 08:19:16;;;;;;;24.17;20.23;;;14.60;53.90;15.10;102360.00;;;;5049334;28;20225;-46
2022/01/26 08:21:42;;;;;;;21.60;18.97;;;14.70;53.90;15.10;102336.00;;;;5049913;28;20404;-47
2022/01/26 08:24:15;;;;;;;21.57;19.23;;;14.70;53.90;14.90;102349.00;;;;5049816;28;20174;-47
2022/01/26 08:26:45;;;;;;;22.50;18.83;;;14.70;53.80;15.20;102361.00;;;;5049438;28;20685;-48
2022/01/26 08:29:17;;;;;;;21.20;18.57;;;14.70;53.80;15.20;102360.00;;;;5049234;28;20243;-46
2022/01/26 08:31:43;;;;;;;19.50;17.47;;;14.70;53.80;15.30;102354.00;;;;5049561;28;20182;-46
2022/01/26 08:34:09;;;;;;;20.10;17.60;;;14.80;53.80;15.30;102354.00;;;;5047869;28;20187;-48
2022/01/26 08:36:35;;;;;;;20.67;18.47;;;14.80;53.80;15.30;102372.00;;;;5048986;28;20391;-46
2022/01/26 08:39:00;;;;;;;21.03;18.17;;;14.80;53.80;15.40;102384.00;;;;5048985;28;20247;-48
2022/01/26 08:41:27;;;;;;;20.40;18.00;;;14.90;53.90;15.40;102377.00;;;;5038796;28;20174;-48
2022/01/26 08:43:53;;;;;;;19.50;17.53;;;14.90;53.90;15.40;102386.00;;;;5027973;28;20179;-49
2022/01/26 08:46:19;;;;;;;19.70;17.47;;;14.90;53.80;15.40;102393.00;;;;5027680;28;20217;-48
2022/01/26 08:48:44;;;;;;;20.07;16.43;;;14.90;53.80;15.40;102381.00;;;;5010461;28;20195;-46
2022/01/26 08:51:10;;;;;;;21.17;17.83;;;14.90;54.30;15.50;102362.00;;;;5009439;28;20730;-47
2022/01/26 08:53:36;;;;;;;19.13;17.10;;;14.90;54.40;15.50;102369.00;;;;5044671;28;20637;-47
2022/01/26 08:56:02;;;;;;;19.17;17.17;;;15.00;54.50;15.50;102404.00;;;;5030340;28;20186;-47
2022/01/26 08:58:27;;;;;;;22.90;15.97;;;15.00;54.30;15.50;102413.00;;;;5031227;28;20218;-48
2022/01/26 09:00:54;;;;;;;20.30;16.50;;;15.10;54.40;15.60;102416.00;;;;5019655;28;20233;-49
2022/01/26 09:03:20;;;;;;;18.67;16.63;;;15.10;54.50;15.60;102412.00;;;;5027383;28;20181;-47
2022/01/26 09:05:46;;;;;;;26.50;16.23;;;15.10;54.50;15.60;102400.00;;;;5028818;28;20262;-47
2022/01/26 09:08:12;;;;;;;19.53;15.73;;;15.10;54.80;15.60;102382.00;;;;5029555;28;20194;-47
2022/01/26 09:10:39;;;;;;;22.23;16.50;;;15.10;54.90;15.60;102377.00;;;;5030744;28;20182;-48
2022/01/26 09:13:05;;;;;;;21.87;15.40;;;15.10;55.30;15.70;102381.00;;;;5047543;28;20206;-50
2022/01/26 09:15:32;;;;;;;23.97;15.40;;;15.20;54.90;15.70;102391.00;;;;5032301;28;20175;-49
2022/01/26 09:18:00;;;;;;;24.43;15.93;;;15.20;55.50;15.70;102405.00;;;;5030215;28;20203;-49
2022/01/26 09:20:26;;;;;;;25.50;15.20;;;15.30;56.20;15.80;102410.00;;;;5029274;28;20643;-49
2022/01/26 09:22:52;;;;;;;20.93;15.17;;;15.30;56.90;15.80;102410.00;;;;5029304;28;20214;-49
2022/01/26 09:25:17;;;;;;;22.43;15.20;;;15.40;56.80;15.80;102404.00;;;;5029848;28;20163;-50
2022/01/26 09:27:43;;;;;;;20.70;15.50;;;15.40;56.70;15.90;102405.00;;;;5030418;28;20735;-47
2022/01/26 09:30:10;;;;;;;23.87;15.43;;;15.40;56.50;15.90;102404.00;;;;5030224;28;20169;-49
2022/01/26 09:32:36;;;;;;;19.20;15.73;;;15.40;56.30;15.90;102411.00;;;;5029648;28;20259;-49
2022/01/26 09:35:04;;;;;;;20.67;14.27;;;15.40;56.30;15.90;102411.00;;;;5028117;28;20202;-50
2022/01/26 09:37:30;;;;;;;18.13;14.73;;;15.50;56.40;16.00;102404.00;;;;5010564;28;20727;-48
2022/01/26 09:39:56;;;;;;;18.63;14.90;;;15.50;56.10;16.00;102407.00;;;;5009116;28;20199;-48
2022/01/26 09:42:23;;;;;;;21.53;14.93;;;15.50;55.90;16.00;102404.00;;;;5008412;28;20160;-48
2022/01/26 09:44:48;;;;;;;17.53;14.27;;;15.60;56.00;16.10;102416.00;;;;5010246;28;20584;-49
2022/01/26 09:47:14;;;;;;;21.63;14.50;;;15.60;56.10;16.10;102422.00;;;;5010694;28;20223;-49
2022/01/26 09:49:40;;;;;;;20.03;14.50;;;15.70;56.40;16.10;102410.00;;;;5011754;28;20152;-48
2022/01/26 09:52:13;;;;;;;20.67;14.03;;;15.70;56.70;16.10;102413.00;;;;5045161;28;20564;-49
2022/01/26 09:54:40;;;;;;;17.00;14.67;;;15.70;56.60;16.20;102413.00;;;;5022655;28;20302;-48
2022/01/26 09:57:06;;;;;;;18.03;14.40;;;15.60;56.50;16.20;102417.00;;;;5024146;28;20613;-49
2022/01/26 09:59:32;;;;;;;20.10;14.47;;;15.60;56.40;16.20;102417.00;;;;5009032;28;20176;-48
2022/01/26 10:01:58;;;;;;;21.87;15.13;;;15.70;56.30;16.20;102421.00;;;;5009355;28;20215;-48
2022/01/26 10:04:35;;;;;;;18.27;14.47;;;15.70;56.10;16.20;102432.00;;;;5009427;28;20699;-48
2022/01/26 10:10:18;;;;;;;15.87;14.17;;;15.60;55.90;16.20;102417.00;;;;5003559;28;20722;-48
2022/01/26 10:15:59;;;;;;;19.37;14.50;;;15.70;56.40;16.20;102406.00;;;;5049147;28;20176;-48
2022/01/26 10:18:24;;;;;;;19.23;14.37;;;15.70;56.40;16.20;102394.00;;;;5038595;28;20274;-48
2022/01/26 10:20:52;;;;;;;17.30;14.57;;;15.70;56.30;16.20;102397.00;;;;5025181;28;20669;-49
2022/01/26 10:23:24;;;;;;;16.00;14.10;;;15.70;56.30;16.20;102406.00;;;;5028539;28;20200;-49
2022/01/26 10:26:12;;;;;;;17.47;14.10;;;15.70;56.10;16.30;102405.00;;;;5028613;28;20163;-48
2022/01/26 10:28:54;;;;;;;16.00;13.93;;;15.70;56.00;16.30;102395.00;;;;5027794;28;20706;-49
2022/01/26 10:31:21;;;;;;;15.67;13.97;;;15.80;56.00;16.30;102403.00;;;;5028378;28;20194;-47
2022/01/26 10:34:02;;;;;;;16.23;14.50;;;15.80;56.00;16.30;102396.00;;;;5027079;28;20254;-48
2022/01/26 10:36:42;;;;;;;16.23;13.90;;;15.80;55.90;16.30;102394.00;;;;5028158;28;20186;-47
2022/01/26 10:39:52;;;;;;;15.70;13.90;;;15.80;55.90;16.30;102401.00;;;;5035722;28;20198;-48
2022/01/26 10:42:11;;;;;;;16.20;14.27;;;15.80;55.70;16.30;102408.00;;;;5025833;28;20198;-48
2022/01/26 10:44:51;;;;;;;17.73;14.30;;;15.90;55.70;16.40;102397.00;;;;5028379;28;20171;-47
2022/01/26 10:47:31;;;;;;;16.60;14.10;;;15.90;55.60;16.40;102400.00;;;;5028609;28;20154;-48
2022/01/26 10:50:31;;;;;;;15.50;13.90;;;15.90;55.50;16.40;102399.00;;;;5028695;28;20222;-47
2022/01/26 10:52:55;;;;;;;15.60;14.00;;;15.90;55.50;16.40;102393.00;;;;5028687;28;20324;-47
2022/01/26 10:55:22;;;;;;;15.50;13.80;;;15.90;55.50;16.40;102384.00;;;;5029590;28;20591;-48
2022/01/26 10:57:47;;;;;;;15.47;13.83;;;15.90;55.50;16.50;102362.00;;;;4995062;28;20297;-47
2022/01/26 11:00:14;;;;;;;14.97;13.47;;;16.00;55.60;16.50;102382.00;;;;5026100;28;20195;-48
2022/01/26 11:02:41;;;;;;;15.63;13.77;;;15.90;55.50;16.50;102364.00;;;;5026878;28;20171;-48
2022/01/26 11:05:08;;;;;;;14.53;13.00;;;16.00;55.50;16.50;102385.00;;;;5026921;28;20179;-49
2022/01/26 11:07:40;;;;;;;15.57;13.97;;;16.00;55.50;16.50;102385.00;;;;5028142;28;20201;-49
2022/01/26 11:10:07;;;;;;;15.30;13.70;;;16.00;55.50;16.50;102388.00;;;;5009691;28;20155;-49
2022/01/26 11:12:33;;;;;;;15.53;13.93;;;16.00;55.40;16.60;102391.00;;;;5027928;28;20159;-49
2022/01/26 11:15:16;;;;;;;14.50;13.00;;;16.00;55.30;16.60;102389.00;;;;5028072;28;20205;-49
2022/01/26 11:17:46;;;;;;;15.73;14.03;;;16.10;56.00;16.60;102395.00;;;;5028102;28;20223;-51
2022/01/26 11:20:30;;;;;;;15.27;13.67;;;16.10;55.40;16.60;102398.00;;;;5025965;28;20201;-48
2022/01/26 11:23:02;;;;;;;15.40;13.80;;;16.10;55.30;16.60;102393.00;;;;5027031;28;20159;-49
2022/01/26 11:25:38;;;;;;;15.23;13.57;;;16.10;55.10;16.60;102402.00;;;;5027874;28;20193;-49
2022/01/26 11:28:16;;;;;;;14.33;12.93;;;16.10;55.20;16.70;102404.00;;;;5027643;28;20182;-49
2022/01/26 11:30:42;;;;;;;15.63;14.00;;;16.10;55.10;16.70;102404.00;;;;5026065;28;20622;-48
2022/01/26 11:33:23;;;;;;;14.83;13.30;;;16.10;55.00;16.70;102405.00;;;;5027694;28;20182;-48
2022/01/26 11:35:51;;;;;;;14.70;13.27;;;16.10;55.00;16.70;102416.00;;;;5026146;28;20666;-49
2022/01/26 11:46:58;;;;;;;15.37;13.77;;;16.20;54.80;16.70;102402.00;;;;5043753;28;20235;-48
2022/01/26 11:49:33;;;;;;;14.83;13.33;;;16.20;54.80;16.70;102413.00;;;;5029439;28;20209;-51
2022/01/26 11:51:58;;;;;;;14.60;13.10;;;16.10;54.70;16.70;102417.00;;;;5027681;28;20178;-48
2022/01/26 11:54:40;;;;;;;15.27;13.73;;;16.20;54.70;16.80;102408.00;;;;5027804;28;20178;-49
2022/01/26 11:57:12;;;;;;;14.50;13.00;;;16.20;54.70;16.80;102403.00;;;;5041803;28;20198;-49
2022/01/26 11:59:45;;;;;;;14.87;13.03;;;16.20;54.60;16.80;102399.00;;;;5029873;28;20221;-49
2022/01/26 12:05:07;;;;;;;16.37;13.47;;;16.20;54.90;16.80;102398.00;;;;5025463;28;20266;-49
2022/01/26 12:07:33;;;;;;;14.97;13.33;;;16.20;55.10;16.80;102401.00;;;;5026189;28;20578;-49
2022/01/26 12:10:03;;;;;;;15.97;13.10;;;16.20;55.10;16.80;102391.00;;;;5007140;28;20168;-49
2022/01/26 12:12:29;;;;;;;15.47;12.77;;;16.20;55.10;16.80;102388.00;;;;5021021;28;20566;-48
2022/01/26 12:15:10;;;;;;;15.63;12.57;;;16.20;55.20;16.80;102387.00;;;;5026012;28;20186;-48
2022/01/26 12:17:56;;;;;;;15.47;12.53;;;16.20;55.00;16.80;102385.00;;;;5027637;28;20231;-48
2022/01/26 12:37:05;;;;;;;14.10;12.10;;;16.20;54.80;16.90;102395.00;;;;5030924;28;20174;-49
2022/01/26 12:41:14;;;;;;;13.47;11.87;;;16.30;54.90;16.80;102386.00;;;;5029375;28;20210;-48
2022/01/26 12:42:22;;;;;;;13.77;12.27;;;16.20;54.80;16.80;102392.00;;;;5031167;28;20170;-49
2022/01/26 12:45:01;;;;;;;14.00;11.77;;;16.30;54.90;16.90;102373.00;;;;5030206;28;20162;-48
2022/01/26 12:47:28;;;;;;;13.70;12.30;;;16.20;54.90;16.80;102361.00;;;;5030851;28;20211;-49
2022/01/26 12:49:56;;;;;;;14.60;12.30;;;16.20;54.80;16.90;102355.00;;;;5013260;28;20179;-48